sensor_id;sensor_type;location;lat;lon;timestamp;temperature;humidity
47434;SHT31;33184;48.774;8.918;2023-01-29T00:02:58;-0.95;84.96
47434;SHT31;33184;48.774;8.918;2023-01-29T00:08:19;-0.96;84.73
47434;SHT31;33184;48.774;8.918;2023-01-29T00:13:39;-0.97;84.64
47434;SHT31;33184;48.774;8.918;2023-01-29T00:19:00;-0.96;84.74
47434;SHT31;33184;48.774;8.918;2023-01-29T00:24:21;-0.99;84.26
47434;SHT31;33184;48.774;8.918;2023-01-29T00:29:42;-0.97;84.15
47434;SHT31;33184;48.774;8.918;2023-01-29T00:35:04;-0.87;84.37
47434;SHT31;33184;48.774;8.918;2023-01-29T00:40:25;-0.87;83.66
47434;SHT31;33184;48.774;8.918;2023-01-29T00:45:46;-0.86;83.98
47434;SHT31;33184;48.774;8.918;2023-01-29T00:51:06;-0.80;83.93
47434;SHT31;33184;48.774;8.918;2023-01-29T00:56:28;-0.82;83.95
47434;SHT31;33184;48.774;8.918;2023-01-29T01:01:49;-0.87;83.71
47434;SHT31;33184;48.774;8.918;2023-01-29T01:07:29;-0.83;84.04
47434;SHT31;33184;48.774;8.918;2023-01-29T01:18:15;-0.86;84.29
47434;SHT31;33184;48.774;8.918;2023-01-29T01:23:36;-0.96;83.96
47434;SHT31;33184;48.774;8.918;2023-01-29T01:28:57;-0.90;84.53
47434;SHT31;33184;48.774;8.918;2023-01-29T01:34:17;-0.87;84.20
47434;SHT31;33184;48.774;8.918;2023-01-29T01:39:38;-0.85;84.10
47434;SHT31;33184;48.774;8.918;2023-01-29T01:45:01;-0.90;84.07
47434;SHT31;33184;48.774;8.918;2023-01-29T01:50:30;-1.01;83.92
47434;SHT31;33184;48.774;8.918;2023-01-29T01:55:57;-1.12;83.72
47434;SHT31;33184;48.774;8.918;2023-01-29T02:01:22;-1.19;84.03
47434;SHT31;33184;48.774;8.918;2023-01-29T02:06:47;-1.13;84.23
47434;SHT31;33184;48.774;8.918;2023-01-29T02:12:27;-1.16;83.87
47434;SHT31;33184;48.774;8.918;2023-01-29T02:17:51;-1.20;83.56
47434;SHT31;33184;48.774;8.918;2023-01-29T02:29:12;-1.34;83.73
47434;SHT31;33184;48.774;8.918;2023-01-29T02:34:51;-1.21;83.83
47434;SHT31;33184;48.774;8.918;2023-01-29T02:40:53;-1.27;83.19
47434;SHT31;33184;48.774;8.918;2023-01-29T02:52:08;-1.48;83.14
47434;SHT31;33184;48.774;8.918;2023-01-29T02:57:36;-1.33;83.75
47434;SHT31;33184;48.774;8.918;2023-01-29T03:08:41;-1.16;83.48
47434;SHT31;33184;48.774;8.918;2023-01-29T03:14:09;-1.21;83.18
47434;SHT31;33184;48.774;8.918;2023-01-29T03:19:39;-1.21;83.30
47434;SHT31;33184;48.774;8.918;2023-01-29T03:25:09;-1.21;83.33
47434;SHT31;33184;48.774;8.918;2023-01-29T03:30:52;-1.23;83.03
47434;SHT31;33184;48.774;8.918;2023-01-29T03:37:07;-1.46;82.82
47434;SHT31;33184;48.774;8.918;2023-01-29T03:53:50;-1.30;84.49
47434;SHT31;33184;48.774;8.918;2023-01-29T03:59:20;-1.30;84.01
47434;SHT31;33184;48.774;8.918;2023-01-29T04:05:13;-1.30;83.66
47434;SHT31;33184;48.774;8.918;2023-01-29T04:10:48;-1.29;83.65
47434;SHT31;33184;48.774;8.918;2023-01-29T04:16:15;-1.20;83.84
47434;SHT31;33184;48.774;8.918;2023-01-29T04:22:02;-1.20;83.27
47434;SHT31;33184;48.774;8.918;2023-01-29T04:27:32;-1.26;83.31
47434;SHT31;33184;48.774;8.918;2023-01-29T04:38:43;-1.24;83.76
47434;SHT31;33184;48.774;8.918;2023-01-29T04:55:26;-1.23;83.63
47434;SHT31;33184;48.774;8.918;2023-01-29T05:00:47;-1.31;83.04
47434;SHT31;33184;48.774;8.918;2023-01-29T05:06:08;-1.36;83.40
47434;SHT31;33184;48.774;8.918;2023-01-29T05:11:31;-1.40;83.64
47434;SHT31;33184;48.774;8.918;2023-01-29T05:16:53;-1.44;84.35
47434;SHT31;33184;48.774;8.918;2023-01-29T05:22:17;-1.29;84.63
47434;SHT31;33184;48.774;8.918;2023-01-29T05:27:41;-1.21;84.37
47434;SHT31;33184;48.774;8.918;2023-01-29T05:33:29;-1.13;84.36
47434;SHT31;33184;48.774;8.918;2023-01-29T05:38:49;-1.30;83.76
47434;SHT31;33184;48.774;8.918;2023-01-29T05:44:10;-1.39;83.50
47434;SHT31;33184;48.774;8.918;2023-01-29T05:49:31;-1.43;83.69
47434;SHT31;33184;48.774;8.918;2023-01-29T05:54:51;-1.33;84.30
47434;SHT31;33184;48.774;8.918;2023-01-29T06:00:12;-1.26;83.99
47434;SHT31;33184;48.774;8.918;2023-01-29T06:05:37;-1.23;83.85
47434;SHT31;33184;48.774;8.918;2023-01-29T06:10:57;-1.29;83.90
47434;SHT31;33184;48.774;8.918;2023-01-29T06:16:18;-1.27;84.03
47434;SHT31;33184;48.774;8.918;2023-01-29T06:21:38;-1.29;84.21
47434;SHT31;33184;48.774;8.918;2023-01-29T06:26:59;-1.33;84.41
47434;SHT31;33184;48.774;8.918;2023-01-29T06:32:20;-1.24;84.48
47434;SHT31;33184;48.774;8.918;2023-01-29T06:37:41;-1.39;84.26
47434;SHT31;33184;48.774;8.918;2023-01-29T06:43:01;-1.41;84.59
47434;SHT31;33184;48.774;8.918;2023-01-29T06:48:23;-1.33;84.82
47434;SHT31;33184;48.774;8.918;2023-01-29T06:53:43;-1.31;84.79
47434;SHT31;33184;48.774;8.918;2023-01-29T06:59:04;-1.36;84.67
47434;SHT31;33184;48.774;8.918;2023-01-29T07:04:25;-1.31;84.86
47434;SHT31;33184;48.774;8.918;2023-01-29T07:09:45;-1.33;84.83
47434;SHT31;33184;48.774;8.918;2023-01-29T07:15:06;-1.30;85.07
47434;SHT31;33184;48.774;8.918;2023-01-29T07:20:29;-1.30;85.08
47434;SHT31;33184;48.774;8.918;2023-01-29T07:25:50;-1.24;85.00
47434;SHT31;33184;48.774;8.918;2023-01-29T07:31:12;-1.23;84.89
47434;SHT31;33184;48.774;8.918;2023-01-29T07:36:34;-1.27;84.82
47434;SHT31;33184;48.774;8.918;2023-01-29T07:41:56;-1.21;85.05
47434;SHT31;33184;48.774;8.918;2023-01-29T07:47:18;-1.17;84.98
47434;SHT31;33184;48.774;8.918;2023-01-29T07:52:39;-1.06;85.08
47434;SHT31;33184;48.774;8.918;2023-01-29T07:58:01;-1.03;84.74
47434;SHT31;33184;48.774;8.918;2023-01-29T08:03:21;-1.12;84.39
47434;SHT31;33184;48.774;8.918;2023-01-29T08:08:42;-1.21;84.18
47434;SHT31;33184;48.774;8.918;2023-01-29T08:14:02;-1.17;84.75
47434;SHT31;33184;48.774;8.918;2023-01-29T08:19:23;-1.07;84.31
47434;SHT31;33184;48.774;8.918;2023-01-29T08:24:44;-1.07;83.94
47434;SHT31;33184;48.774;8.918;2023-01-29T08:30:05;-0.97;83.76
47434;SHT31;33184;48.774;8.918;2023-01-29T08:35:26;-0.87;83.55
47434;SHT31;33184;48.774;8.918;2023-01-29T08:40:46;-0.85;83.19
47434;SHT31;33184;48.774;8.918;2023-01-29T08:46:07;-0.79;82.23
47434;SHT31;33184;48.774;8.918;2023-01-29T08:51:28;-0.73;82.10
47434;SHT31;33184;48.774;8.918;2023-01-29T08:56:49;-0.75;81.66
47434;SHT31;33184;48.774;8.918;2023-01-29T09:02:10;-0.68;81.41
47434;SHT31;33184;48.774;8.918;2023-01-29T09:07:31;-0.62;81.17
47434;SHT31;33184;48.774;8.918;2023-01-29T09:12:52;-0.66;80.74
47434;SHT31;33184;48.774;8.918;2023-01-29T09:18:13;-0.61;81.21
47434;SHT31;33184;48.774;8.918;2023-01-29T09:23:33;-0.65;80.04
47434;SHT31;33184;48.774;8.918;2023-01-29T09:28:54;-0.61;80.06
47434;SHT31;33184;48.774;8.918;2023-01-29T09:34:15;-0.58;79.78
47434;SHT31;33184;48.774;8.918;2023-01-29T09:39:35;-0.49;78.63
47434;SHT31;33184;48.774;8.918;2023-01-29T09:45:04;-0.49;79.15
47434;SHT31;33184;48.774;8.918;2023-01-29T09:50:36;-0.27;79.42
47434;SHT31;33184;48.774;8.918;2023-01-29T09:56:20;-0.30;78.34
47434;SHT31;33184;48.774;8.918;2023-01-29T10:19:18;0.44;77.05
47434;SHT31;33184;48.774;8.918;2023-01-29T10:24:48;0.64;76.36
47434;SHT31;33184;48.774;8.918;2023-01-29T10:30:35;0.62;75.97
47434;SHT31;33184;48.774;8.918;2023-01-29T10:36:01;0.55;75.64
47434;SHT31;33184;48.774;8.918;2023-01-29T10:41:53;0.50;75.47
47434;SHT31;33184;48.774;8.918;2023-01-29T10:47:35;0.50;75.72
47434;SHT31;33184;48.774;8.918;2023-01-29T10:53:24;0.62;76.50
47434;SHT31;33184;48.774;8.918;2023-01-29T10:58:55;0.62;75.36
47434;SHT31;33184;48.774;8.918;2023-01-29T11:04:18;0.62;75.19
47434;SHT31;33184;48.774;8.918;2023-01-29T11:09:49;0.66;76.22
47434;SHT31;33184;48.774;8.918;2023-01-29T11:15:22;0.88;75.57
47434;SHT31;33184;48.774;8.918;2023-01-29T11:20:44;1.19;79.21
47434;SHT31;33184;48.774;8.918;2023-01-29T11:26:05;1.67;78.71
47434;SHT31;33184;48.774;8.918;2023-01-29T11:31:35;1.12;73.50
47434;SHT31;33184;48.774;8.918;2023-01-29T11:42:21;1.09;73.18
47434;SHT31;33184;48.774;8.918;2023-01-29T11:47:47;0.96;73.97
47434;SHT31;33184;48.774;8.918;2023-01-29T11:58:52;1.07;74.38
47434;SHT31;33184;48.774;8.918;2023-01-29T12:04:23;0.97;74.13
47434;SHT31;33184;48.774;8.918;2023-01-29T12:09:55;0.89;74.21
47434;SHT31;33184;48.774;8.918;2023-01-29T12:15:21;1.09;74.78
47434;SHT31;33184;48.774;8.918;2023-01-29T12:20:49;1.37;73.55
47434;SHT31;33184;48.774;8.918;2023-01-29T12:26:21;1.71;73.16
47434;SHT31;33184;48.774;8.918;2023-01-29T12:42:58;3.44;68.88
47434;SHT31;33184;48.774;8.918;2023-01-29T12:48:27;3.85;66.43
47434;SHT31;33184;48.774;8.918;2023-01-29T12:54:06;3.38;65.15
47434;SHT31;33184;48.774;8.918;2023-01-29T12:59:31;3.44;65.72
47434;SHT31;33184;48.774;8.918;2023-01-29T13:10:28;2.67;68.02
47434;SHT31;33184;48.774;8.918;2023-01-29T13:15:50;3.19;65.83
47434;SHT31;33184;48.774;8.918;2023-01-29T13:21:17;3.75;65.35
47434;SHT31;33184;48.774;8.918;2023-01-29T13:26:39;2.96;66.01
47434;SHT31;33184;48.774;8.918;2023-01-29T13:32:02;2.76;67.76
47434;SHT31;33184;48.774;8.918;2023-01-29T13:37:28;2.65;68.99
47434;SHT31;33184;48.774;8.918;2023-01-29T13:42:50;2.74;67.25
47434;SHT31;33184;48.774;8.918;2023-01-29T13:48:25;2.60;67.43
47434;SHT31;33184;48.774;8.918;2023-01-29T13:53:57;2.50;68.93
47434;SHT31;33184;48.774;8.918;2023-01-29T13:59:50;3.19;67.07
47434;SHT31;33184;48.774;8.918;2023-01-29T14:16:36;2.39;68.41
47434;SHT31;33184;48.774;8.918;2023-01-29T14:21:57;1.97;70.21
47434;SHT31;33184;48.774;8.918;2023-01-29T14:27:21;1.87;71.00
47434;SHT31;33184;48.774;8.918;2023-01-29T14:32:45;1.57;71.80
47434;SHT31;33184;48.774;8.918;2023-01-29T14:38:13;1.47;72.86
47434;SHT31;33184;48.774;8.918;2023-01-29T14:43:34;1.26;73.59
47434;SHT31;33184;48.774;8.918;2023-01-29T14:48:54;1.12;73.97
47434;SHT31;33184;48.774;8.918;2023-01-29T14:54:26;1.05;74.13
47434;SHT31;33184;48.774;8.918;2023-01-29T14:59:55;0.97;74.98
47434;SHT31;33184;48.774;8.918;2023-01-29T15:05:19;0.85;75.65
47434;SHT31;33184;48.774;8.918;2023-01-29T15:10:47;0.74;75.62
47434;SHT31;33184;48.774;8.918;2023-01-29T15:16:40;0.75;76.06
47434;SHT31;33184;48.774;8.918;2023-01-29T15:22:14;0.76;76.04
47434;SHT31;33184;48.774;8.918;2023-01-29T15:27:35;0.71;76.13
47434;SHT31;33184;48.774;8.918;2023-01-29T15:32:55;0.60;76.64
47434;SHT31;33184;48.774;8.918;2023-01-29T15:38:19;0.55;76.90
47434;SHT31;33184;48.774;8.918;2023-01-29T15:44:29;0.52;77.13
47434;SHT31;33184;48.774;8.918;2023-01-29T15:49:35;0.50;77.35
47434;SHT31;33184;48.774;8.918;2023-01-29T15:55:02;0.42;77.54
47434;SHT31;33184;48.774;8.918;2023-01-29T16:00:26;0.38;77.91
47434;SHT31;33184;48.774;8.918;2023-01-29T16:05:50;0.31;78.19
47434;SHT31;33184;48.774;8.918;2023-01-29T16:11:11;0.17;78.55
47434;SHT31;33184;48.774;8.918;2023-01-29T16:16:32;0.10;78.79
47434;SHT31;33184;48.774;8.918;2023-01-29T16:22:00;0.07;79.02
47434;SHT31;33184;48.774;8.918;2023-01-29T16:27:23;0.03;79.16
47434;SHT31;33184;48.774;8.918;2023-01-29T16:32:44;-0.03;79.44
47434;SHT31;33184;48.774;8.918;2023-01-29T16:38:16;-0.11;79.68
47434;SHT31;33184;48.774;8.918;2023-01-29T16:43:55;-0.18;79.87
47434;SHT31;33184;48.774;8.918;2023-01-29T16:54:46;-0.46;80.49
47434;SHT31;33184;48.774;8.918;2023-01-29T17:00:17;-0.54;81.11
47434;SHT31;33184;48.774;8.918;2023-01-29T17:05:39;-0.48;81.32
47434;SHT31;33184;48.774;8.918;2023-01-29T17:11:00;-0.48;81.06
47434;SHT31;33184;48.774;8.918;2023-01-29T17:21:46;-0.55;81.16
47434;SHT31;33184;48.774;8.918;2023-01-29T17:27:15;-0.59;81.24
47434;SHT31;33184;48.774;8.918;2023-01-29T17:32:37;-0.87;81.59
47434;SHT31;33184;48.774;8.918;2023-01-29T17:37:57;-0.97;82.41
47434;SHT31;33184;48.774;8.918;2023-01-29T17:43:18;-0.95;82.62
47434;SHT31;33184;48.774;8.918;2023-01-29T17:48:38;-1.07;82.86
47434;SHT31;33184;48.774;8.918;2023-01-29T17:53:59;-1.16;83.25
47434;SHT31;33184;48.774;8.918;2023-01-29T17:59:22;-1.13;83.37
47434;SHT31;33184;48.774;8.918;2023-01-29T18:04:42;-1.04;83.11
47434;SHT31;33184;48.774;8.918;2023-01-29T18:10:03;-1.13;82.82
47434;SHT31;33184;48.774;8.918;2023-01-29T18:15:24;-1.15;82.92
47434;SHT31;33184;48.774;8.918;2023-01-29T18:20:45;-1.19;82.85
47434;SHT31;33184;48.774;8.918;2023-01-29T18:26:06;-1.26;82.89
47434;SHT31;33184;48.774;8.918;2023-01-29T18:31:27;-1.41;82.85
47434;SHT31;33184;48.774;8.918;2023-01-29T18:36:47;-1.58;83.23
47434;SHT31;33184;48.774;8.918;2023-01-29T18:42:08;-1.62;83.61
47434;SHT31;33184;48.774;8.918;2023-01-29T18:47:28;-1.62;83.59
47434;SHT31;33184;48.774;8.918;2023-01-29T18:52:49;-1.67;83.65
47434;SHT31;33184;48.774;8.918;2023-01-29T18:58:10;-1.72;83.61
47434;SHT31;33184;48.774;8.918;2023-01-29T19:03:31;-1.77;83.61
47434;SHT31;33184;48.774;8.918;2023-01-29T19:08:51;-1.82;83.62
47434;SHT31;33184;48.774;8.918;2023-01-29T19:14:12;-1.83;83.92
47434;SHT31;33184;48.774;8.918;2023-01-29T19:19:33;-1.88;83.79
47434;SHT31;33184;48.774;8.918;2023-01-29T19:24:53;-2.05;83.59
47434;SHT31;33184;48.774;8.918;2023-01-29T19:30:14;-2.07;84.00
47434;SHT31;33184;48.774;8.918;2023-01-29T19:35:35;-2.13;84.33
47434;SHT31;33184;48.774;8.918;2023-01-29T19:40:58;-2.19;84.90
47434;SHT31;33184;48.774;8.918;2023-01-29T19:46:19;-2.16;85.04
47434;SHT31;33184;48.774;8.918;2023-01-29T19:51:39;-2.25;84.62
47434;SHT31;33184;48.774;8.918;2023-01-29T19:57:00;-2.30;84.53
47434;SHT31;33184;48.774;8.918;2023-01-29T20:02:21;-2.36;84.37
47434;SHT31;33184;48.774;8.918;2023-01-29T20:07:44;-2.40;84.43
47434;SHT31;33184;48.774;8.918;2023-01-29T20:13:05;-2.52;84.43
47434;SHT31;33184;48.774;8.918;2023-01-29T20:18:26;-2.52;85.05
47434;SHT31;33184;48.774;8.918;2023-01-29T20:23:50;-2.56;85.05
47434;SHT31;33184;48.774;8.918;2023-01-29T20:29:11;-2.63;85.09
47434;SHT31;33184;48.774;8.918;2023-01-29T20:34:33;-2.58;85.14
47434;SHT31;33184;48.774;8.918;2023-01-29T20:39:54;-2.58;84.96
47434;SHT31;33184;48.774;8.918;2023-01-29T20:45:14;-2.49;85.78
47434;SHT31;33184;48.774;8.918;2023-01-29T20:50:35;-2.49;85.79
47434;SHT31;33184;48.774;8.918;2023-01-29T20:55:55;-2.46;85.74
47434;SHT31;33184;48.774;8.918;2023-01-29T21:01:18;-2.50;85.70
47434;SHT31;33184;48.774;8.918;2023-01-29T21:06:39;-2.68;85.94
47434;SHT31;33184;48.774;8.918;2023-01-29T21:12:00;-2.78;86.52
47434;SHT31;33184;48.774;8.918;2023-01-29T21:17:20;-2.71;86.70
47434;SHT31;33184;48.774;8.918;2023-01-29T21:22:41;-2.63;87.15
47434;SHT31;33184;48.774;8.918;2023-01-29T21:28:04;-2.71;86.88
47434;SHT31;33184;48.774;8.918;2023-01-29T21:33:25;-2.83;86.63
47434;SHT31;33184;48.774;8.918;2023-01-29T21:38:45;-2.94;87.06
47434;SHT31;33184;48.774;8.918;2023-01-29T21:44:07;-2.91;87.03
47434;SHT31;33184;48.774;8.918;2023-01-29T21:49:29;-2.92;86.66
47434;SHT31;33184;48.774;8.918;2023-01-29T21:54:49;-2.94;86.51
47434;SHT31;33184;48.774;8.918;2023-01-29T22:00:10;-3.02;85.90
47434;SHT31;33184;48.774;8.918;2023-01-29T22:05:32;-3.09;85.73
47434;SHT31;33184;48.774;8.918;2023-01-29T22:10:52;-3.18;85.66
47434;SHT31;33184;48.774;8.918;2023-01-29T22:16:13;-3.19;86.10
47434;SHT31;33184;48.774;8.918;2023-01-29T22:21:33;-3.36;85.52
47434;SHT31;33184;48.774;8.918;2023-01-29T22:26:54;-3.32;85.91
47434;SHT31;33184;48.774;8.918;2023-01-29T22:32:15;-3.32;85.85
47434;SHT31;33184;48.774;8.918;2023-01-29T22:37:35;-3.36;85.39
47434;SHT31;33184;48.774;8.918;2023-01-29T22:42:56;-3.38;85.00
47434;SHT31;33184;48.774;8.918;2023-01-29T22:48:17;-3.49;85.06
47434;SHT31;33184;48.774;8.918;2023-01-29T22:53:42;-3.70;85.42
47434;SHT31;33184;48.774;8.918;2023-01-29T22:59:03;-3.76;85.39
47434;SHT31;33184;48.774;8.918;2023-01-29T23:04:24;-3.77;85.19
47434;SHT31;33184;48.774;8.918;2023-01-29T23:09:46;-3.73;85.12
47434;SHT31;33184;48.774;8.918;2023-01-29T23:15:07;-3.87;85.21
47434;SHT31;33184;48.774;8.918;2023-01-29T23:20:27;-4.06;85.73
47434;SHT31;33184;48.774;8.918;2023-01-29T23:25:48;-4.10;86.43
47434;SHT31;33184;48.774;8.918;2023-01-29T23:31:27;-4.03;86.84
47434;SHT31;33184;48.774;8.918;2023-01-29T23:36:48;-3.86;87.08
47434;SHT31;33184;48.774;8.918;2023-01-29T23:42:08;-3.72;86.88
47434;SHT31;33184;48.774;8.918;2023-01-29T23:47:29;-3.70;86.38
47434;SHT31;33184;48.774;8.918;2023-01-29T23:52:49;-3.77;85.71
47434;SHT31;33184;48.774;8.918;2023-01-29T23:58:10;-3.84;86.22
